Scroll down
FLIGHT INFORMATION
Cathay Pacific

CPA83

At Arrival Gate

KLAX
 VHHH
DATE: 2019-08-27
GATE: S1
GATE DEPARTURE: 04:45
TAKEOFF: 04:56
DATE: 2019-08-27
GATE:  -
LANDING: 18:05
GATE ARRIVAL: 18:21
FLIGHT DATA
Crew: 
Speed: 
531 kts
Altitude: 
40,009 ft
Stage Length: 
6,298.3 nm
Block Time: 
13.6 hrs
Flight Time: 
13.2 hrs
Fuel Used: 
317,963 lb
Cleared Route: KLAX HIIPR EVOSE MKGEE DARRK SUMMR RIZIN MQO AUDIA 36N30 37N40 37N50 36N60 34N70 32E80 30E70 28E60 27E50 25E40 TUNTO GUMBO HCN PARPA GRADY WP521 QUOTA CYRUS COMBO DADON ELATO MAGOG ENPET FISHA ABBEY MUSEL TAMAR TD GUAVA SOKOE LIMES VHHH
TRACK DATA
50,000 ft 1,000 kts
AIRCRAFT INFO AND CUMULATIVE STATS
Aircraft Type: 
B744ERF
Registration: 
SELCAL: 
QSBP
MSN/LN: 
37299 / 1404
Operator: 
Total Flights: 
4
Total Block Time: 
42.8 hrs
Total Flight Time: 
41.7 hrs
Total Fuel Time: 
1,008,100 lb
DATALINK LOG | Newest first | Current as of: 2021-01-20 22:17:45
LABEL SEQUENCE CONTENT Dn/Up
QD211118:21 42.7▼ Dn
QC051118:05▼ Dn
GA4010ADVANCED GATE ASSIGNMENTS NOT YET AVAILABLE AT THIS AIRPORT▲ Up
GR3730VHHH 18:03 MAAS YP/UM WCHR/S/C HI-VAL NO DIPL/VIP NO▼ Dn
2U1650VHHH 271700Z 06004KT 9999 FEW025 29/25 Q1008 NOSIG▲ Up
2S1308VHHH▼ Dn
QB562804:56▼ Dn
QA464404:45 360.8▼ Dn
2U4151KLAX 270353Z 25006KT 10SM FEW100 FEW300 22/17 A2984 RMK AO2 SLP101 T02220167 VISNO RWY24 $▲ Up
2S3929KLAX▼ Dn
A34103CLEARED TO VHHH VIA SUMMR1 RIZIN MQO AUDIA 36N130W 37N140W 37N150W 36N160W 34N170W 32N180E 30N170E 28N160E 27N150E 25N140E TUNTO GUMBO J5 HCN G581 ELATO V522 ABBEY ABEY3A. SQUAWK 2375.▲ Up
Q03949[LINK ACK]▲ Up
Q03854[LINK TEST]▼ Dn


AIRCRAFT HISTORY
FLIGHT DATE FLIGHT NO. ORIGIN DESTINATION CLEARED ROUTE BLOCK TIME FLIGHT TIME FUEL USED PILOT
2021-01-02CPA102WSSS KSAN WSSS TOMAN VERIN LUSMO AKMON UDOSI ALDAS AGSAM ANOKI ARESI AKOTA AVMUP ALDIS ABVAR MEVIN MAGMA SADEK KAZIK AMMEK AZAMA ONC OLDUP 32E40 36E50 40E60 43E70 45E80 46N70 46N60 45N50 43N40 40N30 ALCOA AVE DERBB REYES FIM LAX KSAN13.9 hrs13.6 hrs333,488 lbMarc Ehnle
2020-09-09CPA2075VHHH WSSS VHHH PECAN LEMON EPDOS ENBOK EPKAL EGEMU EXOTO VEPAM KARAN SOSPA PTH RUTIT ELSAS CN ESPOB ESBUM ELALO WSSS3.6 hrs3.2 hrs87,336 lbZsolt Szivak
2019-08-27CPA83KLAX VHHH KLAX HIIPR EVOSE MKGEE DARRK SUMMR RIZIN MQO AUDIA 36N30 37N40 37N50 36N60 34N70 32E80 30E70 28E60 27E50 25E40 TUNTO GUMBO HCN PARPA GRADY WP521 QUOTA CYRUS COMBO DADON ELATO MAGOG ENPET FISHA ABBEY MUSEL TAMAR TD GUAVA SOKOE LIMES VHHH13.6 hrs13.2 hrs317,963 lbKyle Rodgers
2019-01-14CPA84VHHH KLAX PORPA TD OCEAN RASSE CONGA ENVAR DADON EXTRA RENOT TONGA TOROX ANLOT PILOX SANAS KUDOS LEKOS MORSU MOLKA MAMOD MUMBA MELEN MOMPA MIDAI MADOG MEXIR IMPAL OTOWA BILLY TAERU BUNGU BAFFY CHEVY SYOYU GYANG NISMO VACKY KENTO SEALS 36E50 36E60 36E70 37E80 38N70 39N60 40N50 40N40 39N30 DACEM PAINT PIRAT BURGL DOUIT CROWY MUPTT MDOTS GRIPR BIKNG RUNNN IRNMN SYMON BAYST JUUSE CLIFY DAHJR GADDO12 hrs11.8 hrs269,313 lbKyle Rodgers